createdAt,value
2022-10-13T00:00:17.281Z,89099.78
2022-10-13T00:03:02.058Z,89102.78
2022-10-13T00:05:46.877Z,89110.81
2022-10-13T00:08:31.625Z,89107.50
2022-10-13T00:11:16.501Z,89106.00
2022-10-13T00:14:01.208Z,89105.09
2022-10-13T00:16:46.095Z,89111.47
2022-10-13T00:19:31.177Z,89111.44
2022-10-13T00:22:16.300Z,89116.69
2022-10-13T00:25:01.215Z,89129.44
2022-10-13T00:27:46.041Z,89137.19
2022-10-13T00:30:30.622Z,89138.00
2022-10-13T00:33:15.472Z,89141.13
2022-10-13T00:36:00.195Z,89148.03
2022-10-13T00:38:44.957Z,89140.91
2022-10-13T00:41:29.677Z,89140.22
2022-10-13T00:44:14.486Z,89131.53
2022-10-13T00:46:59.450Z,89122.22
2022-10-13T00:49:44.105Z,89117.69
2022-10-13T00:52:28.906Z,89111.56
2022-10-13T00:55:13.645Z,89106.44
2022-10-13T00:58:02.662Z,89104.44
2022-10-13T01:00:49.983Z,89100.03
2022-10-13T01:03:34.658Z,89099.94
2022-10-13T01:06:23.446Z,89104.84
2022-10-13T01:09:08.920Z,89103.63
2022-10-13T01:11:53.679Z,89103.63
2022-10-13T01:14:38.628Z,89094.88
2022-10-13T01:17:23.154Z,89090.78
2022-10-13T01:20:07.835Z,89092.88
2022-10-13T01:22:52.503Z,89090.47
2022-10-13T01:25:37.447Z,89089.44
2022-10-13T01:28:22.252Z,89091.56
2022-10-13T01:31:07.115Z,89088.41
2022-10-13T01:33:51.812Z,89087.03
2022-10-13T01:36:36.614Z,89078.78
2022-10-13T01:39:21.504Z,89076.09
2022-10-13T01:42:06.247Z,89090.28
2022-10-13T01:44:51.196Z,89079.34
2022-10-13T01:47:35.885Z,89082.56
2022-10-13T01:50:20.572Z,89074.63
2022-10-13T01:53:05.434Z,89076.22
2022-10-13T01:55:50.239Z,89076.31
2022-10-13T01:58:35.014Z,89072.84
2022-10-13T02:01:19.856Z,89073.09
2022-10-13T02:04:04.595Z,89070.31
2022-10-13T02:06:49.397Z,89072.53
2022-10-13T02:09:34.165Z,89068.78
2022-10-13T02:12:19.140Z,89065.06
2022-10-13T02:15:04.146Z,89052.94
2022-10-13T02:17:48.875Z,89057.94
2022-10-13T02:20:33.637Z,89055.56
2022-10-13T02:23:18.408Z,89050.03
2022-10-13T02:26:03.236Z,89057.16
2022-10-13T02:28:47.996Z,89057.25
2022-10-13T02:31:32.809Z,89054.03
2022-10-13T02:34:17.648Z,89051.44
2022-10-13T02:37:02.418Z,89050.53
2022-10-13T02:39:47.189Z,89047.53
2022-10-13T02:42:32.046Z,89050.13
2022-10-13T02:45:16.912Z,89049.81
2022-10-13T02:48:02.865Z,89059.38
2022-10-13T02:50:47.819Z,89060.09
2022-10-13T02:53:32.405Z,89061.28
2022-10-13T02:56:17.185Z,89052.97
2022-10-13T02:59:02.008Z,89045.31
2022-10-13T03:01:46.954Z,89054.66
2022-10-13T03:04:31.681Z,89057.75
2022-10-13T03:07:16.342Z,89052.34
2022-10-13T03:10:01.052Z,89053.03
2022-10-13T03:12:45.876Z,89055.25
2022-10-13T03:15:30.668Z,89056.56
2022-10-13T03:18:15.392Z,89055.44
2022-10-13T03:21:00.270Z,89048.75
2022-10-13T03:23:44.908Z,89045.81
2022-10-13T03:26:29.711Z,89052.66
2022-10-13T03:29:14.538Z,89049.13
2022-10-13T03:31:59.323Z,89055.34
2022-10-13T03:34:44.164Z,89052.25
2022-10-13T03:37:28.827Z,89061.78
2022-10-13T03:40:13.673Z,89060.56
2022-10-13T03:42:58.381Z,89062.69
2022-10-13T03:45:43.119Z,89068.81
2022-10-13T03:48:27.887Z,89068.81
2022-10-13T03:51:12.657Z,89072.53
2022-10-13T03:53:57.401Z,89056.94
2022-10-13T03:56:42.267Z,89061.38
2022-10-13T03:59:26.999Z,89059.34
2022-10-13T04:02:11.765Z,89054.00
2022-10-13T04:04:56.561Z,89053.81
2022-10-13T04:07:41.449Z,89051.00
2022-10-13T04:10:26.327Z,89046.50
2022-10-13T04:13:11.086Z,89039.34
2022-10-13T04:15:55.943Z,89038.97
2022-10-13T04:18:44.471Z,89040.56
2022-10-13T04:21:29.448Z,89045.28
2022-10-13T04:24:14.227Z,89038.66
2022-10-13T04:26:58.977Z,89029.59
2022-10-13T04:29:43.803Z,89035.53
2022-10-13T04:32:28.605Z,89035.41
2022-10-13T04:35:13.346Z,89038.94
2022-10-13T04:37:58.021Z,89039.31
2022-10-13T04:40:43.092Z,89045.63
2022-10-13T04:43:27.767Z,89058.00
2022-10-13T04:46:12.539Z,89055.31
2022-10-13T04:48:57.322Z,89047.25
2022-10-13T04:51:41.986Z,89047.09
2022-10-13T04:54:26.901Z,89051.09
2022-10-13T04:57:11.673Z,89050.31
2022-10-13T04:59:56.592Z,89047.09
2022-10-13T05:02:41.450Z,89041.59
2022-10-13T05:05:26.388Z,89041.28
2022-10-13T05:08:11.112Z,89034.06
2022-10-13T05:10:56.092Z,89038.19
2022-10-13T05:13:41.072Z,89027.47
2022-10-13T05:16:25.805Z,89028.84
2022-10-13T05:19:10.708Z,89022.03
2022-10-13T05:21:55.473Z,89032.06
2022-10-13T05:24:40.441Z,89027.16
2022-10-13T05:27:25.208Z,89023.44
2022-10-13T05:30:09.904Z,89022.03
2022-10-13T05:32:54.575Z,89019.72
2022-10-13T05:35:39.491Z,89030.78
2022-10-13T05:38:26.148Z,89032.69
2022-10-13T05:41:11.102Z,89043.63
2022-10-13T05:43:55.920Z,89043.50
2022-10-13T05:46:40.593Z,89043.31
2022-10-13T05:49:25.401Z,89055.44
2022-10-13T05:52:10.150Z,89055.88
2022-10-13T05:54:54.957Z,89050.75
2022-10-13T05:57:39.712Z,89047.84
2022-10-13T06:00:24.485Z,89038.09
2022-10-13T06:03:09.347Z,89035.91
2022-10-13T06:05:54.059Z,89027.16
2022-10-13T06:08:38.888Z,89026.53
2022-10-13T06:11:23.548Z,89038.59
2022-10-13T06:14:08.312Z,89036.56
2022-10-13T06:16:52.999Z,89046.59
2022-10-13T06:19:37.750Z,89051.41
2022-10-13T06:22:22.731Z,89056.00
2022-10-13T06:25:08.076Z,89063.03
2022-10-13T06:27:52.740Z,89053.47
2022-10-13T06:30:37.629Z,89047.06
2022-10-13T06:33:22.414Z,89047.44
2022-10-13T06:36:07.196Z,89044.19
2022-10-13T06:38:52.147Z,89033.44
2022-10-13T06:41:36.672Z,89042.13
2022-10-13T06:44:21.559Z,89051.47
2022-10-13T06:47:06.276Z,89049.63
2022-10-13T06:49:51.132Z,89052.56
2022-10-13T06:52:35.767Z,89045.03
2022-10-13T06:55:20.552Z,89050.59
2022-10-13T06:58:05.270Z,89048.03
2022-10-13T07:00:50.228Z,89037.88
2022-10-13T07:03:35.435Z,89041.13
2022-10-13T07:06:20.197Z,89034.97
2022-10-13T07:09:05.161Z,89041.22
2022-10-13T07:11:49.801Z,89035.94
2022-10-13T07:14:34.562Z,89040.53
2022-10-13T07:17:19.463Z,89041.44
2022-10-13T07:20:07.231Z,89043.44
2022-10-13T07:22:52.462Z,89042.88
2022-10-13T07:25:37.130Z,89047.66
2022-10-13T07:28:22.074Z,89051.28
2022-10-13T07:31:06.754Z,89055.28
2022-10-13T07:33:51.415Z,89051.75
2022-10-13T07:36:36.216Z,89039.69
2022-10-13T07:39:21.043Z,89040.53
2022-10-13T07:42:05.819Z,89042.22
2022-10-13T07:44:50.518Z,89033.72
2022-10-13T07:47:35.181Z,89035.13
2022-10-13T07:50:19.826Z,89042.84
2022-10-13T07:53:05.568Z,89039.88
2022-10-13T07:55:50.430Z,89038.66
2022-10-13T07:58:35.303Z,89038.31
2022-10-13T08:01:20.024Z,89039.53
2022-10-13T08:04:04.876Z,89042.16
2022-10-13T08:06:49.491Z,89051.44
2022-10-13T08:09:34.183Z,89040.19
2022-10-13T08:12:19.283Z,89034.75
2022-10-13T08:15:06.251Z,89040.53
2022-10-13T08:17:51.549Z,89036.03
2022-10-13T08:20:41.523Z,89035.88
2022-10-13T08:23:28.572Z,89033.78
2022-10-13T08:26:13.327Z,89034.81
2022-10-13T08:29:16.777Z,89021.38
2022-10-13T08:32:02.893Z,89021.53
2022-10-13T08:34:47.686Z,89020.88
2022-10-13T08:37:32.495Z,89015.06
2022-10-13T08:40:17.382Z,89016.09
2022-10-13T08:43:02.231Z,89007.84
2022-10-13T08:45:47.007Z,89002.03
2022-10-13T08:48:31.827Z,89002.88
2022-10-13T08:51:16.637Z,89001.09
2022-10-13T08:54:01.421Z,89000.72
2022-10-13T08:56:46.029Z,88998.94
2022-10-13T08:59:30.871Z,88999.16
2022-10-13T09:02:15.681Z,89004.41
2022-10-13T09:05:00.423Z,88999.59
2022-10-13T09:07:45.214Z,88994.53
2022-10-13T09:10:29.909Z,88989.78
2022-10-13T09:13:14.809Z,88993.44
2022-10-13T09:15:59.584Z,88992.91
2022-10-13T09:18:44.406Z,88997.09
2022-10-13T09:21:29.142Z,89000.81
2022-10-13T09:24:13.899Z,89008.34
2022-10-13T09:26:58.554Z,89005.88
2022-10-13T09:29:43.414Z,89001.78
2022-10-13T09:32:28.152Z,89006.81
2022-10-13T09:35:12.876Z,88998.47
2022-10-13T09:37:57.656Z,88993.22
2022-10-13T09:43:32.355Z,88985.06
2022-10-13T09:46:17.040Z,88980.94
2022-10-13T09:49:01.817Z,88971.28
2022-10-13T09:51:46.635Z,88978.56
2022-10-13T09:54:31.399Z,88977.53
2022-10-13T09:57:16.311Z,88975.28
2022-10-13T10:02:47.110Z,88981.56
2022-10-13T10:05:31.652Z,88977.47
2022-10-13T10:08:16.374Z,88980.13
2022-10-13T10:11:01.123Z,88971.22
2022-10-13T10:13:46.009Z,88976.88
2022-10-13T10:16:30.643Z,88975.22
2022-10-13T10:19:15.416Z,88986.69
2022-10-13T10:22:00.155Z,88979.53
2022-10-13T10:24:44.842Z,88979.09
2022-10-13T10:27:29.683Z,88974.91
2022-10-13T10:30:14.548Z,88977.69
2022-10-13T10:32:59.220Z,88975.72
2022-10-13T10:35:43.868Z,88973.34
2022-10-13T10:38:28.697Z,88972.91
2022-10-13T10:41:13.343Z,88965.78
2022-10-13T10:43:58.060Z,88967.97
2022-10-13T10:46:42.835Z,88963.63
2022-10-13T10:49:27.794Z,88962.50
2022-10-13T10:52:12.454Z,88965.88
2022-10-13T10:54:57.389Z,88958.88
2022-10-13T10:57:42.156Z,88955.28
2022-10-13T11:03:12.822Z,88942.00
2022-10-13T11:05:57.646Z,88937.31
2022-10-13T11:08:42.435Z,88932.91
2022-10-13T11:11:29.410Z,88933.38
2022-10-13T11:14:15.911Z,88926.94
2022-10-13T11:17:00.750Z,88924.25
2022-10-13T11:19:45.509Z,88916.31
2022-10-13T11:22:30.473Z,88911.41
2022-10-13T11:25:15.153Z,88899.75
2022-10-13T11:27:59.969Z,88898.38
2022-10-13T11:30:44.782Z,88884.59
2022-10-13T11:33:29.540Z,88890.28
2022-10-13T11:36:14.324Z,88883.47
2022-10-13T11:38:59.064Z,88870.00
2022-10-13T11:41:43.839Z,88878.28
2022-10-13T11:47:18.714Z,88862.34
2022-10-13T11:50:03.716Z,88868.97
2022-10-13T11:52:48.471Z,88869.47
2022-10-13T11:55:33.375Z,88868.78
2022-10-13T11:58:17.998Z,88871.47
2022-10-13T12:01:02.703Z,88870.53
2022-10-13T12:03:47.437Z,88861.44
2022-10-13T12:06:32.268Z,88842.06
2022-10-13T12:09:16.972Z,88847.59
2022-10-13T12:12:01.891Z,88857.59
2022-10-13T12:14:47.234Z,88852.00
2022-10-13T12:17:32.301Z,88850.44
2022-10-13T12:20:17.503Z,88844.03
2022-10-13T12:23:02.154Z,88838.09
2022-10-13T12:25:46.779Z,88839.19
2022-10-13T12:28:31.526Z,88831.50
2022-10-13T12:31:16.803Z,88836.41
2022-10-13T12:34:01.505Z,88832.81
2022-10-13T12:36:46.379Z,88821.50
2022-10-13T12:39:31.079Z,88817.22
2022-10-13T12:42:15.751Z,88816.00
2022-10-13T12:45:00.510Z,88811.28
2022-10-13T12:47:45.424Z,88814.22
2022-10-13T12:50:30.470Z,88809.19
2022-10-13T12:53:15.218Z,88806.28
2022-10-13T12:55:59.864Z,88806.28
2022-10-13T12:58:44.527Z,88803.63
2022-10-13T13:01:29.367Z,88802.34
2022-10-13T13:04:14.262Z,88798.19
2022-10-13T13:06:58.996Z,88798.47
2022-10-13T13:09:43.657Z,88786.94
2022-10-13T13:12:28.434Z,88785.16
2022-10-13T13:15:13.135Z,88783.19
2022-10-13T13:17:59.107Z,88780.16
2022-10-13T13:20:44.212Z,88776.53
2022-10-13T13:23:28.937Z,88783.34
2022-10-13T13:26:13.879Z,88785.00
2022-10-13T13:28:58.689Z,88790.47
2022-10-13T13:31:43.419Z,88790.66
2022-10-13T13:34:28.254Z,88792.53
2022-10-13T13:37:12.990Z,88788.72
2022-10-13T13:39:57.718Z,88788.97
2022-10-13T13:42:42.246Z,88793.28
2022-10-13T13:45:27.112Z,88801.09
2022-10-13T13:48:11.816Z,88803.97
2022-10-13T13:50:56.391Z,88798.56
2022-10-13T13:53:40.967Z,88801.19
2022-10-13T13:56:25.665Z,88799.84
2022-10-13T13:59:10.444Z,88803.50
2022-10-13T14:01:55.271Z,88804.53
2022-10-13T14:04:39.982Z,88805.22
2022-10-13T14:07:24.883Z,88800.34
2022-10-13T14:10:09.772Z,88807.56
2022-10-13T14:12:54.519Z,88801.66
2022-10-13T14:15:39.248Z,88797.63
2022-10-13T14:18:24.091Z,88788.06
2022-10-13T14:21:08.851Z,88774.19
2022-10-13T14:23:53.506Z,88779.97
2022-10-13T14:26:38.322Z,88772.97
2022-10-13T14:29:23.071Z,88766.16
2022-10-13T14:32:07.879Z,88767.16
2022-10-13T14:34:52.705Z,88766.59
2022-10-13T14:37:37.817Z,88765.63
2022-10-13T14:40:22.935Z,88766.88
2022-10-13T14:43:07.625Z,88779.94
2022-10-13T14:45:52.434Z,88779.09
2022-10-13T14:48:37.110Z,88775.34
2022-10-13T14:51:21.990Z,88776.56
2022-10-13T14:54:06.713Z,88775.91
2022-10-13T14:56:51.444Z,88778.63
2022-10-13T14:59:36.189Z,88775.13
2022-10-13T15:02:20.949Z,88775.75
2022-10-13T15:05:05.706Z,88759.59
2022-10-13T15:07:50.558Z,88764.59
2022-10-13T15:10:35.544Z,88754.94
2022-10-13T15:13:20.193Z,88746.56
2022-10-13T15:16:04.898Z,88745.09
2022-10-13T15:18:49.601Z,88745.00
2022-10-13T15:21:34.328Z,88749.50
2022-10-13T15:24:19.045Z,88745.63
2022-10-13T15:27:03.995Z,88736.63
2022-10-13T15:29:48.929Z,88742.13
2022-10-13T15:32:33.753Z,88741.66
2022-10-13T15:35:18.526Z,88741.47
2022-10-13T15:38:03.222Z,88740.53
2022-10-13T15:40:47.988Z,88748.34
2022-10-13T15:43:32.784Z,88750.28
2022-10-13T15:46:17.716Z,88745.97
2022-10-13T15:49:02.414Z,88757.97
2022-10-13T15:51:47.279Z,88749.97
2022-10-13T15:54:31.943Z,88748.44
2022-10-13T15:57:16.777Z,88744.25
2022-10-13T16:00:01.518Z,88746.72
2022-10-13T16:02:46.244Z,88749.16
2022-10-13T16:05:31.045Z,88748.38
2022-10-13T16:08:15.788Z,88742.19
2022-10-13T16:11:00.533Z,88739.34
2022-10-13T16:13:45.261Z,88738.09
2022-10-13T16:16:30.095Z,88740.03
2022-10-13T16:19:15.049Z,88737.03
2022-10-13T16:22:00.154Z,88733.22
2022-10-13T16:24:44.722Z,88742.66
2022-10-13T16:27:29.476Z,88735.16
2022-10-13T16:30:14.272Z,88735.31
2022-10-13T16:32:58.997Z,88730.97
2022-10-13T16:35:43.796Z,88736.41
2022-10-13T16:38:28.467Z,88738.00
2022-10-13T16:41:13.272Z,88749.84
2022-10-13T16:43:57.926Z,88754.31
2022-10-13T16:46:42.842Z,88764.13
2022-10-13T16:49:27.415Z,88756.13
2022-10-13T16:52:12.118Z,88751.84
2022-10-13T16:54:56.687Z,88753.47
2022-10-13T16:57:41.472Z,88764.72
2022-10-13T17:00:26.380Z,88770.00
2022-10-13T17:03:11.299Z,88767.44
2022-10-13T17:05:56.121Z,88776.75
2022-10-13T17:08:40.847Z,88780.44
2022-10-13T17:11:25.767Z,88778.50
2022-10-13T17:14:10.415Z,88783.06
2022-10-13T17:16:57.722Z,88771.16
2022-10-13T17:19:43.037Z,88785.69
2022-10-13T17:22:27.695Z,88785.69
2022-10-13T17:25:12.537Z,88775.00
2022-10-13T17:27:57.267Z,88782.03
2022-10-13T17:30:42.169Z,88786.06
2022-10-13T17:33:26.861Z,88792.91
2022-10-13T17:36:11.662Z,88789.78
2022-10-13T17:38:56.471Z,88791.41
2022-10-13T17:41:41.271Z,88787.72
2022-10-13T17:44:25.949Z,88788.97
2022-10-13T17:47:10.840Z,88797.34
2022-10-13T17:49:55.528Z,88792.09
2022-10-13T17:52:40.281Z,88791.22
2022-10-13T17:55:25.035Z,88794.41
2022-10-13T17:58:09.914Z,88796.00
2022-10-13T18:01:12.410Z,88793.53
2022-10-13T18:03:58.607Z,88785.34
2022-10-13T18:06:44.071Z,88795.66
2022-10-13T18:09:29.164Z,88792.47
2022-10-13T18:12:13.935Z,88802.97
2022-10-13T18:14:58.821Z,88804.03
2022-10-13T18:17:43.554Z,88803.91
2022-10-13T18:20:28.404Z,88801.84
2022-10-13T18:23:14.901Z,88799.72
2022-10-13T18:25:59.878Z,88808.31
2022-10-13T18:28:44.772Z,88811.13
2022-10-13T18:31:30.060Z,88804.78
2022-10-13T18:34:14.774Z,88807.41
2022-10-13T18:36:59.543Z,88809.91
2022-10-13T18:39:44.490Z,88795.22
2022-10-13T18:42:29.124Z,88807.97
2022-10-13T18:45:13.884Z,88801.47
2022-10-13T18:47:58.500Z,88801.84
2022-10-13T18:50:43.265Z,88804.78
2022-10-13T18:53:28.194Z,88797.66
2022-10-13T18:56:12.947Z,88809.00
2022-10-13T18:58:59.693Z,88809.00
2022-10-13T19:01:45.122Z,88810.19
2022-10-13T19:04:29.898Z,88812.31
2022-10-13T19:07:14.680Z,88813.53
2022-10-13T19:09:59.441Z,88823.00
2022-10-13T19:12:44.170Z,88814.25
2022-10-13T19:15:28.892Z,88824.56
2022-10-13T19:18:13.791Z,88824.38
2022-10-13T19:20:58.663Z,88816.88
2022-10-13T19:23:43.558Z,88820.72
2022-10-13T19:26:28.178Z,88818.09
2022-10-13T19:29:13.079Z,88820.53
2022-10-13T19:31:57.807Z,88821.06
2022-10-13T19:34:42.575Z,88815.25
2022-10-13T19:37:27.337Z,88814.22
2022-10-13T19:40:12.155Z,88817.00
2022-10-13T19:42:56.937Z,88816.47
2022-10-13T19:45:41.676Z,88811.91
2022-10-13T19:48:26.464Z,88816.66
2022-10-13T19:51:11.207Z,88803.53
2022-10-13T19:53:56.007Z,88809.47
2022-10-13T19:56:40.646Z,88806.88
2022-10-13T19:59:25.414Z,88803.56
2022-10-13T20:02:10.018Z,88794.13
2022-10-13T20:04:54.807Z,88795.50
2022-10-13T20:07:39.487Z,88802.69
2022-10-13T20:10:24.374Z,88812.84
2022-10-13T20:13:09.287Z,88817.06
2022-10-13T20:15:53.980Z,88813.59
2022-10-13T20:18:38.630Z,88819.91
2022-10-13T20:21:23.284Z,88814.84
2022-10-13T20:24:08.209Z,88816.94
2022-10-13T20:26:52.820Z,88821.47
2022-10-13T20:29:37.551Z,88818.50
2022-10-13T20:32:22.363Z,88821.66
2022-10-13T20:35:07.188Z,88823.94
2022-10-13T20:37:51.779Z,88826.56
2022-10-13T20:40:36.522Z,88824.78
2022-10-13T20:43:25.653Z,88825.50
2022-10-13T20:46:10.642Z,88821.31
2022-10-13T20:49:10.572Z,88816.06
2022-10-13T20:51:56.456Z,88823.09
2022-10-13T20:54:41.229Z,88815.22
2022-10-13T20:57:25.907Z,88809.09
2022-10-13T21:00:10.671Z,88799.28
2022-10-13T21:02:58.824Z,88804.72
2022-10-13T21:05:46.901Z,88808.00
2022-10-13T21:08:31.728Z,88801.00
2022-10-13T21:11:16.525Z,88805.53
2022-10-13T21:14:01.286Z,88804.81
2022-10-13T21:16:46.046Z,88813.06
2022-10-13T21:19:30.737Z,88800.47
2022-10-13T21:22:15.386Z,88805.56
2022-10-13T21:25:00.178Z,88805.56
2022-10-13T21:27:44.879Z,88816.22
2022-10-13T21:30:29.750Z,88804.66
2022-10-13T21:33:14.345Z,88811.69
2022-10-13T21:35:59.156Z,88807.66
2022-10-13T21:38:43.857Z,88808.19
2022-10-13T21:41:28.592Z,88809.25
2022-10-13T21:44:13.387Z,88812.75
2022-10-13T21:46:58.309Z,88810.84
2022-10-13T21:49:43.411Z,88810.16
2022-10-13T21:52:28.089Z,88807.53
2022-10-13T21:55:12.681Z,88804.56
2022-10-13T21:58:00.582Z,88816.09
2022-10-13T22:00:47.831Z,88816.59
2022-10-13T22:03:32.473Z,88819.06
2022-10-13T22:06:19.168Z,88823.22
2022-10-13T22:09:04.256Z,88819.00
2022-10-13T22:11:51.833Z,88819.53
2022-10-13T22:14:40.236Z,88819.72
2022-10-13T22:17:25.067Z,88815.88
2022-10-13T22:20:09.789Z,88820.06
2022-10-13T22:22:54.424Z,88815.88
2022-10-13T22:25:39.160Z,88808.72
2022-10-13T22:28:24.150Z,88812.56
2022-10-13T22:31:08.793Z,88807.16
2022-10-13T22:33:53.528Z,88816.44
2022-10-13T22:36:42.196Z,88807.34
2022-10-13T22:39:28.317Z,88809.41
2022-10-13T22:42:13.064Z,88808.53
2022-10-13T22:44:57.845Z,88808.00
2022-10-13T22:47:42.623Z,88811.50
2022-10-13T22:50:27.485Z,88806.41
2022-10-13T22:53:12.222Z,88805.34
2022-10-13T22:55:57.185Z,88801.31
2022-10-13T22:58:41.897Z,88792.38
2022-10-13T23:01:26.729Z,88793.81
2022-10-13T23:04:11.435Z,88782.09
2022-10-13T23:06:56.303Z,88789.47
2022-10-13T23:09:41.078Z,88789.63
2022-10-13T23:12:25.849Z,88780.88
2022-10-13T23:15:10.740Z,88788.91
2022-10-13T23:17:55.600Z,88795.53
2022-10-13T23:20:40.317Z,88789.06
2022-10-13T23:23:24.984Z,88784.31
2022-10-13T23:26:09.821Z,88794.28
2022-10-13T23:28:54.694Z,88791.47
2022-10-13T23:31:39.839Z,88790.78
2022-10-13T23:34:24.611Z,88788.84
2022-10-13T23:37:09.437Z,88787.25
2022-10-13T23:39:54.138Z,88787.06
2022-10-13T23:42:39.028Z,88777.69
2022-10-13T23:45:23.736Z,88783.44
2022-10-13T23:48:08.510Z,88777.16
2022-10-13T23:50:53.337Z,88779.81
2022-10-13T23:53:38.211Z,88771.97
2022-10-13T23:56:22.923Z,88775.63
2022-10-13T23:59:07.720Z,88777.38
